エドワルド ゴメス国際空港(マナウス)の過去48時間の天気

エドワルド ゴメス国際空港(マナウス) (Eduardo Gomes International)

現在時刻: 1/22 23:25 -04 (1/23 03:25 UTC) 以下の時間は現地時間です。

過去48時間のMETAR気象情報
時間 風向 風速(m/s) 視程 気温(℃) 湿度(%) 気圧(hPa) 天気現象
22 23:00 静穏 0 10km以上 25 94 1010
22 22:00 北北西 1 10km以上 25 100 1010
22 21:00 北東 1 10km以上 26 89 1010
22 20:00 静穏 0 10km以上 26 89 1008
22 19:00 北北東 2 10km以上 26 89 1008
22 18:00 静穏 0 10km以上 27 84 1007 周辺でしゅう雨
22 17:00 北北西 3 10km以上 28 74 1007 弱い雨
22 16:48 北西 2 10km以上 28 79 1007
22 16:00 2 10km以上 32 59 1007
22 15:00 北北西 3 10km以上 30 70 1008 周辺でしゅう雨
22 14:00 1 10km以上 32 67 1009
22 13:00 2 10km以上 31 66 1010
22 12:00 東北東 3 10km以上 30 70 1012
22 11:00 北北東 3 10km以上 29 74 1012
22 10:00 東北東 3 10km以上 28 84 1012
22 09:00 北東 4 10km以上 27 84 1012
22 08:00 2 10km以上 25 94 1011
22 07:00 2 10km以上 25 94 1010
22 06:00 1 10km以上 24 100 1010
22 05:00 東北東 2 10km以上 25 94 1009
22 04:00 東北東 2 10km以上 25 94 1009
22 03:00 北東 2 10km以上 25 89 1009
22 02:00 北北東 1 10km以上 25 94 1009
22 01:00 北北東 2 10km以上 25 94 1010
22 00:00 北北東 2 10km以上 25 94 1011
21 23:00 1 10km以上 25 94 1011
21 22:00 1 10km以上 25 100 1011
21 21:00 静穏 0 10km以上 25 94 1010
21 20:00 西北西 1 10km以上 25 94 1009
21 19:00 1 10km以上 25 94 1008
21 18:00 北北西 3 10km以上 27 79 1008
21 17:00 北北西 3 10km以上 29 74 1008
21 16:00 西北西 2 10km以上 29 79 1008
21 15:00 北西 2 10km以上 28 79 1009
21 14:00 西北西 2 10km以上 28 79 1010
21 13:00 西 2 10km以上 27 84 1012
21 12:00 西 2 10km以上 26 94 1013
21 11:00 西北西 2 10km以上 25 100 1013
21 10:00 北北西 2 10km以上 24 100 1013
21 09:16 2 10km以上 24 100 1013
21 09:00 北東 2 7000m 24 89 1013 弱い雨
21 08:00 西 1 3000m 24 100 1013 弱い雨
21 07:26 東南東 2 4000m 23 100 1012 弱い雨
21 07:00 東南東 1 8000m 23 100 1012
21 06:00 西北西 2 8000m 23 100 1011 雷雨
21 05:00 西 4 7000m 23 100 1010 強い雷雨
21 04:30 西北西 3 4000m 24 100 1010 強い雷雨
21 04:00 3 10km以上 25 100 1009 雷雨
21 03:26 2 10km以上 25 100 1009 雷雨
21 03:00 2 10km以上 25 94 1009
21 02:00 南東 2 10km以上 25 100 1010
21 01:00 南東 2 10km以上 25 100 1011
21 00:00 1 10km以上 25 100 1011
SBEG 230300Z 00000KT 9999 FEW030 25/24 Q1010
SBEG 230200Z 34002KT CAVOK 25/25 Q1010
SBEG 230100Z 04002KT CAVOK 26/24 Q1010
SBEG 230000Z 00000KT CAVOK 26/24 Q1008
SBEG 222300Z 02004KT 9999 FEW030TCU SCT080 26/24 Q1008
SBEG 222200Z 00000KT 9999 VCSH FEW030TCU SCT080 27/24 Q1007
SBEG 222100Z 34006KT 9999 -RA SCT025 FEW030TCU SCT080 28/23 Q1007 RERA
SBEG 222048Z 31004KT 9999 RA SCT025 FEW030TCU 28/24 Q1007
SBEG 222000Z 36003KT 9999 SCT025 FEW030TCU 32/23 Q1007
SBEG 221900Z 34005KT 9999 VCSH SCT025 FEW030TCU 30/24 Q1008
SBEG 221800Z 18002KT 9999 SCT025 FEW030TCU 32/25 Q1009
SBEG 221700Z 35003KT 9999 SCT025 FEW030TCU SCT100 31/24 Q1010
SBEG 221600Z 06005KT 9999 SCT020 FEW025TCU BKN100 30/24 Q1012
SBEG 221500Z 02005KT 9999 SCT020 BKN100 29/24 Q1012
SBEG 221400Z 07005KT 9999 SCT017 BKN100 28/25 Q1012
SBEG 221300Z 04007KT 9999 FEW012 BKN100 27/24 Q1012
SBEG 221200Z 36004KT 9999 FEW010 BKN100 25/24 Q1011
SBEG 221100Z 35003KT 9999 FEW010 BKN090 25/24 Q1010
SBEG 221000Z 36002KT 9999 FEW010 BKN080 24/24 Q1010
SBEG 220900Z 06004KT CAVOK 25/24 Q1009
SBEG 220800Z 07003KT CAVOK 25/24 Q1009
SBEG 220700Z 04003KT CAVOK 25/23 Q1009
SBEG 220600Z 03002KT CAVOK 25/24 Q1009
SBEG 220500Z 03003KT CAVOK 25/24 Q1010
SBEG 220400Z 02004KT CAVOK 25/24 Q1011
SBEG 220300Z 08002KT CAVOK 25/24 Q1011
SBEG 220200Z 09001KT 9999 FEW016 SCT050 25/25 Q1011
SBEG 220100Z 00000KT 9999 SCT020 25/24 Q1010
SBEG 220000Z 30001KT 9999 FEW020 25/24 Q1009
SBEG 212300Z 35002KT 9999 FEW020 SCT080 25/24 Q1008
SBEG 212200Z 34005KT 9999 FEW020 SCT070 27/23 Q1008
SBEG 212100Z 33006KT 9999 BKN020 FEW025TCU BKN100 29/24 Q1008
SBEG 212000Z 30004KT 9999 SCT018 FEW025TCU BKN100 29/25 Q1008
SBEG 211900Z 32004KT 9999 SCT016 FEW025TCU BKN080 28/24 Q1009
SBEG 211800Z 30004KT 9999 SCT015 BKN100 28/24 Q1010
SBEG 211700Z 26003KT 9999 SCT012 BKN100 27/24 Q1012
SBEG 211600Z 26004KT 9999 SCT008 BKN080 26/25 Q1013
SBEG 211500Z 30004KT 9999 BKN006 BKN080 25/25 Q1013
SBEG 211400Z 33003KT 9999 SCT010 BKN080 24/24 Q1013
SBEG 211316Z 36003KT 9999 SCT004 BKN080 24/24 Q1013
SBEG 211300Z 04003KT 7000 -RA FEW002 BKN008 BKN080 24/22 Q1013
SBEG 211200Z 26002KT 3000 -RA FEW003 BKN008 BKN080 24/24 Q1013
SBEG 211126Z 11004KT 4000 -RA FEW003 BKN012 BKN080 23/23 Q1012 RERA
SBEG 211100Z 11002KT 8000 RA BKN010 OVC020 23/23 Q1012 RETS
SBEG 211000Z 30004KT 8000 TSRA SCT003 BKN010 FEW025CB 23/23 Q1011 RERA
SBEG 210900Z 28007KT 7000 +TSRA BKN002 SCT020 FEW025CB BKN080 23/23 Q1010 RERA
SBEG 210830Z 29005KT 4000 +TSRA BKN005 SCT020 FEW025CB BKN080 24/24 Q1010 RERA
SBEG 210800Z 08005KT 9999 TSRA BKN005 SCT020 FEW025CB BKN080 25/25 Q1009
SBEG 210726Z 10004KT 9999 TSRA BKN006 SCT020 FEW025CB BKN080 25/25 Q1009
SBEG 210700Z 10004KT 9999 RA BKN006 SCT020 BKN080 25/24 Q1009
SBEG 210600Z 13003KT 9999 BKN006 BKN080 25/25 Q1010
SBEG 210500Z 14003KT 9999 BKN006 BKN080 25/25 Q1011
SBEG 210400Z 18002KT 9999 FEW007 BKN080 25/25 Q1011